sensor_id;sensor_type;location;lat;lon;timestamp;temperature;humidity
16515;DHT22;8370;52.556;7.970;2023-09-07T00:01:20;17.60;99.90
16515;DHT22;8370;52.556;7.970;2023-09-07T00:03:45;17.60;99.90
16515;DHT22;8370;52.556;7.970;2023-09-07T00:06:11;17.50;99.90
16515;DHT22;8370;52.556;7.970;2023-09-07T00:08:36;17.50;99.90
16515;DHT22;8370;52.556;7.970;2023-09-07T00:11:02;17.50;99.90
16515;DHT22;8370;52.556;7.970;2023-09-07T00:13:28;17.50;99.90
16515;DHT22;8370;52.556;7.970;2023-09-07T00:15:57;17.40;99.90
16515;DHT22;8370;52.556;7.970;2023-09-07T00:18:23;17.50;99.90
16515;DHT22;8370;52.556;7.970;2023-09-07T00:20:49;17.40;99.90
16515;DHT22;8370;52.556;7.970;2023-09-07T00:23:14;17.30;99.90
16515;DHT22;8370;52.556;7.970;2023-09-07T00:25:41;17.30;99.90
16515;DHT22;8370;52.556;7.970;2023-09-07T00:28:06;17.30;99.90
16515;DHT22;8370;52.556;7.970;2023-09-07T00:30:32;17.30;99.90
16515;DHT22;8370;52.556;7.970;2023-09-07T00:32:57;17.30;99.90
16515;DHT22;8370;52.556;7.970;2023-09-07T00:35:22;17.20;99.90
16515;DHT22;8370;52.556;7.970;2023-09-07T00:37:48;17.20;99.90
16515;DHT22;8370;52.556;7.970;2023-09-07T00:40:13;17.20;99.90
16515;DHT22;8370;52.556;7.970;2023-09-07T00:42:39;17.20;99.90
16515;DHT22;8370;52.556;7.970;2023-09-07T00:45:04;17.10;99.90
16515;DHT22;8370;52.556;7.970;2023-09-07T00:47:30;17.10;99.90
16515;DHT22;8370;52.556;7.970;2023-09-07T00:49:58;17.10;99.90
16515;DHT22;8370;52.556;7.970;2023-09-07T00:52:24;17.10;99.90
16515;DHT22;8370;52.556;7.970;2023-09-07T00:54:49;17.10;99.90
16515;DHT22;8370;52.556;7.970;2023-09-07T00:57:14;17.10;99.90
16515;DHT22;8370;52.556;7.970;2023-09-07T00:59:40;17.10;99.90
16515;DHT22;8370;52.556;7.970;2023-09-07T01:02:05;17.10;99.90
16515;DHT22;8370;52.556;7.970;2023-09-07T01:04:31;17.00;99.90
16515;DHT22;8370;52.556;7.970;2023-09-07T01:07:00;17.00;99.90
16515;DHT22;8370;52.556;7.970;2023-09-07T01:09:28;17.00;99.90
16515;DHT22;8370;52.556;7.970;2023-09-07T01:11:55;16.90;99.90
16515;DHT22;8370;52.556;7.970;2023-09-07T01:14:21;16.90;99.90
16515;DHT22;8370;52.556;7.970;2023-09-07T01:16:47;16.80;99.90
16515;DHT22;8370;52.556;7.970;2023-09-07T01:19:13;16.80;99.90
16515;DHT22;8370;52.556;7.970;2023-09-07T01:21:39;16.70;99.90
16515;DHT22;8370;52.556;7.970;2023-09-07T01:24:06;16.70;99.90
16515;DHT22;8370;52.556;7.970;2023-09-07T01:26:33;16.70;99.90
16515;DHT22;8370;52.556;7.970;2023-09-07T01:28:58;16.70;99.90
16515;DHT22;8370;52.556;7.970;2023-09-07T01:31:24;16.70;99.90
16515;DHT22;8370;52.556;7.970;2023-09-07T01:33:49;16.60;99.90
16515;DHT22;8370;52.556;7.970;2023-09-07T01:36:15;16.60;99.90
16515;DHT22;8370;52.556;7.970;2023-09-07T01:38:40;16.60;99.90
16515;DHT22;8370;52.556;7.970;2023-09-07T01:41:05;16.60;99.90
16515;DHT22;8370;52.556;7.970;2023-09-07T01:43:31;16.50;99.90
16515;DHT22;8370;52.556;7.970;2023-09-07T01:45:56;16.40;99.90
16515;DHT22;8370;52.556;7.970;2023-09-07T01:48:22;16.40;99.90
16515;DHT22;8370;52.556;7.970;2023-09-07T01:50:51;16.30;99.90
16515;DHT22;8370;52.556;7.970;2023-09-07T01:53:17;16.30;99.90
16515;DHT22;8370;52.556;7.970;2023-09-07T01:55:42;16.30;99.90
16515;DHT22;8370;52.556;7.970;2023-09-07T01:58:07;16.30;99.90
16515;DHT22;8370;52.556;7.970;2023-09-07T02:00:36;16.20;99.90
16515;DHT22;8370;52.556;7.970;2023-09-07T02:03:01;16.20;99.90
16515;DHT22;8370;52.556;7.970;2023-09-07T02:05:26;16.20;99.90
16515;DHT22;8370;52.556;7.970;2023-09-07T02:07:52;16.10;99.90
16515;DHT22;8370;52.556;7.970;2023-09-07T02:10:17;16.10;99.90
16515;DHT22;8370;52.556;7.970;2023-09-07T02:12:45;16.00;99.90
16515;DHT22;8370;52.556;7.970;2023-09-07T02:15:10;16.00;99.90
16515;DHT22;8370;52.556;7.970;2023-09-07T02:17:36;15.90;99.90
16515;DHT22;8370;52.556;7.970;2023-09-07T02:20:01;15.90;99.90
16515;DHT22;8370;52.556;7.970;2023-09-07T02:22:33;15.90;99.90
16515;DHT22;8370;52.556;7.970;2023-09-07T02:24:58;15.90;99.90
16515;DHT22;8370;52.556;7.970;2023-09-07T02:27:23;15.90;99.90
16515;DHT22;8370;52.556;7.970;2023-09-07T02:29:49;15.90;99.90
16515;DHT22;8370;52.556;7.970;2023-09-07T02:32:15;15.90;99.90
16515;DHT22;8370;52.556;7.970;2023-09-07T02:34:40;15.90;99.90
16515;DHT22;8370;52.556;7.970;2023-09-07T02:37:05;15.90;99.90
16515;DHT22;8370;52.556;7.970;2023-09-07T02:39:31;15.90;99.90
16515;DHT22;8370;52.556;7.970;2023-09-07T02:41:56;15.90;99.90
16515;DHT22;8370;52.556;7.970;2023-09-07T02:44:22;15.80;99.90
16515;DHT22;8370;52.556;7.970;2023-09-07T02:46:47;15.70;99.90
16515;DHT22;8370;52.556;7.970;2023-09-07T02:49:13;15.70;99.90
16515;DHT22;8370;52.556;7.970;2023-09-07T02:51:38;15.60;99.90
16515;DHT22;8370;52.556;7.970;2023-09-07T02:54:04;15.60;99.90
16515;DHT22;8370;52.556;7.970;2023-09-07T02:56:30;15.60;99.90
16515;DHT22;8370;52.556;7.970;2023-09-07T02:58:55;15.60;99.90
16515;DHT22;8370;52.556;7.970;2023-09-07T03:01:21;15.60;99.90
16515;DHT22;8370;52.556;7.970;2023-09-07T03:03:47;15.50;99.90
16515;DHT22;8370;52.556;7.970;2023-09-07T03:06:14;15.50;99.90
16515;DHT22;8370;52.556;7.970;2023-09-07T03:08:40;15.50;99.90
16515;DHT22;8370;52.556;7.970;2023-09-07T03:11:06;15.40;99.90
16515;DHT22;8370;52.556;7.970;2023-09-07T03:13:31;15.40;99.90
16515;DHT22;8370;52.556;7.970;2023-09-07T03:15:57;15.40;99.90
16515;DHT22;8370;52.556;7.970;2023-09-07T03:18:23;15.40;99.90
16515;DHT22;8370;52.556;7.970;2023-09-07T03:20:49;15.30;99.90
16515;DHT22;8370;52.556;7.970;2023-09-07T03:23:14;15.30;99.90
16515;DHT22;8370;52.556;7.970;2023-09-07T03:25:40;15.30;99.90
16515;DHT22;8370;52.556;7.970;2023-09-07T03:28:05;15.30;99.90
16515;DHT22;8370;52.556;7.970;2023-09-07T03:30:31;15.30;99.90
16515;DHT22;8370;52.556;7.970;2023-09-07T03:32:57;15.30;99.90
16515;DHT22;8370;52.556;7.970;2023-09-07T03:35:23;15.30;99.90
16515;DHT22;8370;52.556;7.970;2023-09-07T03:37:48;15.30;99.90
16515;DHT22;8370;52.556;7.970;2023-09-07T03:40:14;15.30;99.90
16515;DHT22;8370;52.556;7.970;2023-09-07T03:42:39;15.30;99.90
16515;DHT22;8370;52.556;7.970;2023-09-07T03:45:05;15.20;99.90
16515;DHT22;8370;52.556;7.970;2023-09-07T03:47:30;15.20;99.90
16515;DHT22;8370;52.556;7.970;2023-09-07T03:49:56;15.20;99.90
16515;DHT22;8370;52.556;7.970;2023-09-07T03:52:22;15.20;99.90
16515;DHT22;8370;52.556;7.970;2023-09-07T03:54:56;15.10;99.90
16515;DHT22;8370;52.556;7.970;2023-09-07T03:57:21;15.20;99.90
16515;DHT22;8370;52.556;7.970;2023-09-07T03:59:47;15.10;99.90
16515;DHT22;8370;52.556;7.970;2023-09-07T04:02:13;15.10;99.90
16515;DHT22;8370;52.556;7.970;2023-09-07T04:04:38;15.00;99.90
16515;DHT22;8370;52.556;7.970;2023-09-07T04:07:04;15.00;99.90
16515;DHT22;8370;52.556;7.970;2023-09-07T04:09:29;15.00;99.90
16515;DHT22;8370;52.556;7.970;2023-09-07T04:11:54;14.90;99.90
16515;DHT22;8370;52.556;7.970;2023-09-07T04:14:20;14.90;99.90
16515;DHT22;8370;52.556;7.970;2023-09-07T04:16:45;14.90;99.90
16515;DHT22;8370;52.556;7.970;2023-09-07T04:19:11;14.80;99.90
16515;DHT22;8370;52.556;7.970;2023-09-07T04:21:38;14.80;99.90
16515;DHT22;8370;52.556;7.970;2023-09-07T04:24:04;14.80;99.90
16515;DHT22;8370;52.556;7.970;2023-09-07T04:26:29;14.70;99.90
16515;DHT22;8370;52.556;7.970;2023-09-07T04:28:55;14.70;99.90
16515;DHT22;8370;52.556;7.970;2023-09-07T04:31:20;14.70;99.90
16515;DHT22;8370;52.556;7.970;2023-09-07T04:33:46;14.60;99.90
16515;DHT22;8370;52.556;7.970;2023-09-07T04:36:12;14.60;99.90
16515;DHT22;8370;52.556;7.970;2023-09-07T04:38:38;14.60;99.90
16515;DHT22;8370;52.556;7.970;2023-09-07T04:41:07;14.60;99.90
16515;DHT22;8370;52.556;7.970;2023-09-07T04:43:33;14.60;99.90
16515;DHT22;8370;52.556;7.970;2023-09-07T04:45:58;14.60;99.90
16515;DHT22;8370;52.556;7.970;2023-09-07T04:48:24;14.60;99.90
16515;DHT22;8370;52.556;7.970;2023-09-07T04:50:56;14.60;99.90
16515;DHT22;8370;52.556;7.970;2023-09-07T04:53:22;14.60;99.90
16515;DHT22;8370;52.556;7.970;2023-09-07T04:55:47;14.60;99.90
16515;DHT22;8370;52.556;7.970;2023-09-07T04:58:13;14.60;99.90
16515;DHT22;8370;52.556;7.970;2023-09-07T05:00:38;14.60;99.90
16515;DHT22;8370;52.556;7.970;2023-09-07T05:03:04;14.50;99.90
16515;DHT22;8370;52.556;7.970;2023-09-07T05:05:29;14.60;99.90
16515;DHT22;8370;52.556;7.970;2023-09-07T05:07:55;14.50;99.90
16515;DHT22;8370;52.556;7.970;2023-09-07T05:10:20;14.50;99.90
16515;DHT22;8370;52.556;7.970;2023-09-07T05:12:45;14.50;99.90
16515;DHT22;8370;52.556;7.970;2023-09-07T05:15:12;14.50;99.90
16515;DHT22;8370;52.556;7.970;2023-09-07T05:17:37;14.50;99.90
16515;DHT22;8370;52.556;7.970;2023-09-07T05:20:03;14.50;99.90
16515;DHT22;8370;52.556;7.970;2023-09-07T05:22:29;14.50;99.90
16515;DHT22;8370;52.556;7.970;2023-09-07T05:24:55;14.50;99.90
16515;DHT22;8370;52.556;7.970;2023-09-07T05:27:20;14.40;99.90
16515;DHT22;8370;52.556;7.970;2023-09-07T05:29:46;14.50;99.90
16515;DHT22;8370;52.556;7.970;2023-09-07T05:32:12;14.50;99.90
16515;DHT22;8370;52.556;7.970;2023-09-07T05:34:38;14.60;99.90
16515;DHT22;8370;52.556;7.970;2023-09-07T05:37:04;14.60;99.90
16515;DHT22;8370;52.556;7.970;2023-09-07T05:39:29;14.60;99.90
16515;DHT22;8370;52.556;7.970;2023-09-07T05:41:55;14.60;99.90
16515;DHT22;8370;52.556;7.970;2023-09-07T05:44:20;14.70;99.90
16515;DHT22;8370;52.556;7.970;2023-09-07T05:46:46;14.70;99.90
16515;DHT22;8370;52.556;7.970;2023-09-07T05:49:13;14.80;99.90
16515;DHT22;8370;52.556;7.970;2023-09-07T05:51:38;14.80;99.90
16515;DHT22;8370;52.556;7.970;2023-09-07T05:54:03;14.80;99.90
16515;DHT22;8370;52.556;7.970;2023-09-07T05:56:29;14.90;99.90
16515;DHT22;8370;52.556;7.970;2023-09-07T05:58:55;14.90;99.90
16515;DHT22;8370;52.556;7.970;2023-09-07T06:01:20;15.00;99.90
16515;DHT22;8370;52.556;7.970;2023-09-07T06:03:46;15.10;99.90
16515;DHT22;8370;52.556;7.970;2023-09-07T06:06:12;15.10;99.90
16515;DHT22;8370;52.556;7.970;2023-09-07T06:08:37;15.20;99.90
16515;DHT22;8370;52.556;7.970;2023-09-07T06:11:02;15.20;99.90
16515;DHT22;8370;52.556;7.970;2023-09-07T06:13:28;15.30;99.90
16515;DHT22;8370;52.556;7.970;2023-09-07T06:15:54;15.40;99.90
16515;DHT22;8370;52.556;7.970;2023-09-07T06:18:19;15.50;99.90
16515;DHT22;8370;52.556;7.970;2023-09-07T06:20:46;15.50;99.90
16515;DHT22;8370;52.556;7.970;2023-09-07T06:23:12;15.60;99.90
16515;DHT22;8370;52.556;7.970;2023-09-07T06:25:37;15.70;99.90
16515;DHT22;8370;52.556;7.970;2023-09-07T06:28:03;15.80;99.90
16515;DHT22;8370;52.556;7.970;2023-09-07T06:30:28;15.80;99.90
16515;DHT22;8370;52.556;7.970;2023-09-07T06:32:54;16.00;99.90
16515;DHT22;8370;52.556;7.970;2023-09-07T06:35:21;16.00;99.90
16515;DHT22;8370;52.556;7.970;2023-09-07T06:37:46;16.10;99.90
16515;DHT22;8370;52.556;7.970;2023-09-07T06:40:12;16.20;99.90
16515;DHT22;8370;52.556;7.970;2023-09-07T06:42:38;16.20;99.90
16515;DHT22;8370;52.556;7.970;2023-09-07T06:45:04;16.30;99.90
16515;DHT22;8370;52.556;7.970;2023-09-07T06:47:30;16.40;99.90
16515;DHT22;8370;52.556;7.970;2023-09-07T06:49:56;16.50;99.90
16515;DHT22;8370;52.556;7.970;2023-09-07T06:52:21;16.60;99.90
16515;DHT22;8370;52.556;7.970;2023-09-07T06:54:47;16.70;99.90
16515;DHT22;8370;52.556;7.970;2023-09-07T06:57:12;16.70;99.90
16515;DHT22;8370;52.556;7.970;2023-09-07T06:59:37;16.80;99.90
16515;DHT22;8370;52.556;7.970;2023-09-07T07:02:03;16.90;99.90
16515;DHT22;8370;52.556;7.970;2023-09-07T07:04:30;17.00;99.90
16515;DHT22;8370;52.556;7.970;2023-09-07T07:06:55;17.10;99.90
16515;DHT22;8370;52.556;7.970;2023-09-07T07:09:21;17.10;99.90
16515;DHT22;8370;52.556;7.970;2023-09-07T07:11:46;17.20;99.90
16515;DHT22;8370;52.556;7.970;2023-09-07T07:14:12;17.30;99.90
16515;DHT22;8370;52.556;7.970;2023-09-07T07:16:37;17.40;99.90
16515;DHT22;8370;52.556;7.970;2023-09-07T07:19:03;17.50;99.90
16515;DHT22;8370;52.556;7.970;2023-09-07T07:21:28;17.60;99.90
16515;DHT22;8370;52.556;7.970;2023-09-07T07:23:54;17.70;99.90
16515;DHT22;8370;52.556;7.970;2023-09-07T07:26:19;17.80;99.90
16515;DHT22;8370;52.556;7.970;2023-09-07T07:28:45;17.90;99.90
16515;DHT22;8370;52.556;7.970;2023-09-07T07:31:10;18.10;99.90
16515;DHT22;8370;52.556;7.970;2023-09-07T07:33:36;18.20;99.90
16515;DHT22;8370;52.556;7.970;2023-09-07T07:36:03;18.30;99.90
16515;DHT22;8370;52.556;7.970;2023-09-07T07:38:28;18.40;99.90
16515;DHT22;8370;52.556;7.970;2023-09-07T07:40:54;18.50;99.90
16515;DHT22;8370;52.556;7.970;2023-09-07T07:43:19;18.60;99.90
16515;DHT22;8370;52.556;7.970;2023-09-07T07:45:44;18.70;99.90
16515;DHT22;8370;52.556;7.970;2023-09-07T07:48:10;18.90;99.90
16515;DHT22;8370;52.556;7.970;2023-09-07T07:50:37;19.00;99.90
16515;DHT22;8370;52.556;7.970;2023-09-07T07:53:03;19.10;99.90
16515;DHT22;8370;52.556;7.970;2023-09-07T07:55:28;19.20;99.90
16515;DHT22;8370;52.556;7.970;2023-09-07T07:57:54;19.40;99.90
16515;DHT22;8370;52.556;7.970;2023-09-07T08:00:19;19.60;99.90
16515;DHT22;8370;52.556;7.970;2023-09-07T08:02:45;19.70;99.90
16515;DHT22;8370;52.556;7.970;2023-09-07T08:05:10;19.90;99.90
16515;DHT22;8370;52.556;7.970;2023-09-07T08:07:36;20.00;99.90
16515;DHT22;8370;52.556;7.970;2023-09-07T08:10:01;20.20;99.90
16515;DHT22;8370;52.556;7.970;2023-09-07T08:12:27;20.30;99.90
16515;DHT22;8370;52.556;7.970;2023-09-07T08:14:52;20.50;99.90
16515;DHT22;8370;52.556;7.970;2023-09-07T08:17:18;20.70;99.90
16515;DHT22;8370;52.556;7.970;2023-09-07T08:19:45;20.90;99.90
16515;DHT22;8370;52.556;7.970;2023-09-07T08:22:13;21.00;99.90
16515;DHT22;8370;52.556;7.970;2023-09-07T08:24:39;21.20;99.90
16515;DHT22;8370;52.556;7.970;2023-09-07T08:27:05;21.40;99.90
16515;DHT22;8370;52.556;7.970;2023-09-07T08:29:31;21.50;99.90
16515;DHT22;8370;52.556;7.970;2023-09-07T08:31:57;21.70;99.90
16515;DHT22;8370;52.556;7.970;2023-09-07T08:34:24;21.90;99.90
16515;DHT22;8370;52.556;7.970;2023-09-07T08:36:51;22.10;99.90
16515;DHT22;8370;52.556;7.970;2023-09-07T08:39:19;22.20;99.90
16515;DHT22;8370;52.556;7.970;2023-09-07T08:41:45;22.40;99.90
16515;DHT22;8370;52.556;7.970;2023-09-07T08:44:11;22.60;99.90
16515;DHT22;8370;52.556;7.970;2023-09-07T08:46:37;22.70;99.90
16515;DHT22;8370;52.556;7.970;2023-09-07T08:49:02;22.80;99.90
16515;DHT22;8370;52.556;7.970;2023-09-07T08:51:29;22.90;99.90
16515;DHT22;8370;52.556;7.970;2023-09-07T08:53:54;23.00;99.90
16515;DHT22;8370;52.556;7.970;2023-09-07T08:56:21;23.20;99.90
16515;DHT22;8370;52.556;7.970;2023-09-07T08:58:47;23.30;99.90
16515;DHT22;8370;52.556;7.970;2023-09-07T09:01:15;23.50;99.90
16515;DHT22;8370;52.556;7.970;2023-09-07T09:03:41;23.60;99.90
16515;DHT22;8370;52.556;7.970;2023-09-07T09:06:07;23.70;99.90
16515;DHT22;8370;52.556;7.970;2023-09-07T09:08:43;23.70;99.90
16515;DHT22;8370;52.556;7.970;2023-09-07T09:11:09;23.80;99.90
16515;DHT22;8370;52.556;7.970;2023-09-07T09:13:34;23.80;99.90
16515;DHT22;8370;52.556;7.970;2023-09-07T09:16:00;23.90;99.90
16515;DHT22;8370;52.556;7.970;2023-09-07T09:18:26;23.90;99.90
16515;DHT22;8370;52.556;7.970;2023-09-07T09:20:52;24.00;99.90
16515;DHT22;8370;52.556;7.970;2023-09-07T09:23:18;24.10;99.90
16515;DHT22;8370;52.556;7.970;2023-09-07T09:25:43;24.10;99.90
16515;DHT22;8370;52.556;7.970;2023-09-07T09:28:09;24.20;99.90
16515;DHT22;8370;52.556;7.970;2023-09-07T09:30:35;24.30;99.90
16515;DHT22;8370;52.556;7.970;2023-09-07T09:33:01;24.40;99.90
16515;DHT22;8370;52.556;7.970;2023-09-07T09:35:28;24.40;99.90
16515;DHT22;8370;52.556;7.970;2023-09-07T09:37:55;24.40;99.90
16515;DHT22;8370;52.556;7.970;2023-09-07T09:40:20;24.50;99.90
16515;DHT22;8370;52.556;7.970;2023-09-07T09:42:46;24.60;99.90
16515;DHT22;8370;52.556;7.970;2023-09-07T09:45:12;24.60;99.90
16515;DHT22;8370;52.556;7.970;2023-09-07T09:47:38;24.70;99.90
16515;DHT22;8370;52.556;7.970;2023-09-07T09:50:04;24.80;99.90
16515;DHT22;8370;52.556;7.970;2023-09-07T09:52:31;24.90;99.90
16515;DHT22;8370;52.556;7.970;2023-09-07T09:54:59;25.00;99.90
16515;DHT22;8370;52.556;7.970;2023-09-07T09:57:25;25.10;99.90
16515;DHT22;8370;52.556;7.970;2023-09-07T09:59:50;25.20;99.90
16515;DHT22;8370;52.556;7.970;2023-09-07T10:02:17;25.30;99.90
16515;DHT22;8370;52.556;7.970;2023-09-07T10:04:42;25.40;99.90
16515;DHT22;8370;52.556;7.970;2023-09-07T10:07:08;25.50;99.90
16515;DHT22;8370;52.556;7.970;2023-09-07T10:09:34;25.60;99.90
16515;DHT22;8370;52.556;7.970;2023-09-07T10:12:00;25.70;99.90
16515;DHT22;8370;52.556;7.970;2023-09-07T10:14:37;25.70;99.90
16515;DHT22;8370;52.556;7.970;2023-09-07T10:17:02;25.90;99.90
16515;DHT22;8370;52.556;7.970;2023-09-07T10:19:29;25.90;99.90
16515;DHT22;8370;52.556;7.970;2023-09-07T10:21:55;26.00;99.90
16515;DHT22;8370;52.556;7.970;2023-09-07T10:24:28;26.00;99.90
16515;DHT22;8370;52.556;7.970;2023-09-07T10:27:00;26.00;99.90
16515;DHT22;8370;52.556;7.970;2023-09-07T10:29:26;26.10;99.90
16515;DHT22;8370;52.556;7.970;2023-09-07T10:31:52;26.10;99.90
16515;DHT22;8370;52.556;7.970;2023-09-07T10:34:18;26.30;99.90
16515;DHT22;8370;52.556;7.970;2023-09-07T10:36:44;26.40;99.90
16515;DHT22;8370;52.556;7.970;2023-09-07T10:39:09;26.50;99.90
16515;DHT22;8370;52.556;7.970;2023-09-07T10:41:44;26.60;99.90
16515;DHT22;8370;52.556;7.970;2023-09-07T10:44:10;26.80;99.90
16515;DHT22;8370;52.556;7.970;2023-09-07T10:46:36;26.90;99.90
16515;DHT22;8370;52.556;7.970;2023-09-07T10:49:02;27.00;99.90
16515;DHT22;8370;52.556;7.970;2023-09-07T10:51:28;27.00;99.90
16515;DHT22;8370;52.556;7.970;2023-09-07T10:53:55;27.00;99.90
16515;DHT22;8370;52.556;7.970;2023-09-07T10:56:23;27.00;99.90
16515;DHT22;8370;52.556;7.970;2023-09-07T10:58:49;27.00;99.90
16515;DHT22;8370;52.556;7.970;2023-09-07T11:01:16;27.20;99.90
16515;DHT22;8370;52.556;7.970;2023-09-07T11:03:42;27.50;99.90
16515;DHT22;8370;52.556;7.970;2023-09-07T11:06:10;27.50;99.90
16515;DHT22;8370;52.556;7.970;2023-09-07T11:08:37;27.60;99.90
16515;DHT22;8370;52.556;7.970;2023-09-07T11:11:02;27.70;99.90
16515;DHT22;8370;52.556;7.970;2023-09-07T11:13:28;27.80;99.90
16515;DHT22;8370;52.556;7.970;2023-09-07T11:15:54;27.80;99.90
16515;DHT22;8370;52.556;7.970;2023-09-07T11:18:20;27.80;99.90
16515;DHT22;8370;52.556;7.970;2023-09-07T11:20:49;27.90;99.90
16515;DHT22;8370;52.556;7.970;2023-09-07T11:23:15;28.00;99.90
16515;DHT22;8370;52.556;7.970;2023-09-07T11:25:41;28.20;99.90
16515;DHT22;8370;52.556;7.970;2023-09-07T11:28:08;28.40;99.90
16515;DHT22;8370;52.556;7.970;2023-09-07T11:30:33;28.70;99.90
16515;DHT22;8370;52.556;7.970;2023-09-07T11:33:00;28.90;99.90
16515;DHT22;8370;52.556;7.970;2023-09-07T11:35:25;29.40;99.90
16515;DHT22;8370;52.556;7.970;2023-09-07T11:37:51;30.60;99.90
16515;DHT22;8370;52.556;7.970;2023-09-07T11:40:17;32.70;99.90
16515;DHT22;8370;52.556;7.970;2023-09-07T11:42:42;34.60;99.90
16515;DHT22;8370;52.556;7.970;2023-09-07T11:45:08;36.50;99.90
16515;DHT22;8370;52.556;7.970;2023-09-07T11:47:34;37.90;99.90
16515;DHT22;8370;52.556;7.970;2023-09-07T11:50:01;39.00;99.90
16515;DHT22;8370;52.556;7.970;2023-09-07T11:52:26;39.90;99.90
16515;DHT22;8370;52.556;7.970;2023-09-07T11:54:51;40.80;97.60
16515;DHT22;8370;52.556;7.970;2023-09-07T11:57:17;41.50;94.30
16515;DHT22;8370;52.556;7.970;2023-09-07T11:59:42;42.10;92.10
16515;DHT22;8370;52.556;7.970;2023-09-07T12:02:08;42.10;90.20
16515;DHT22;8370;52.556;7.970;2023-09-07T12:04:37;42.40;87.50
16515;DHT22;8370;52.556;7.970;2023-09-07T12:07:03;42.70;86.60
16515;DHT22;8370;52.556;7.970;2023-09-07T12:09:29;42.70;82.70
16515;DHT22;8370;52.556;7.970;2023-09-07T12:11:54;42.70;80.40
16515;DHT22;8370;52.556;7.970;2023-09-07T12:14:20;42.80;79.30
16515;DHT22;8370;52.556;7.970;2023-09-07T12:16:45;42.80;79.20
16515;DHT22;8370;52.556;7.970;2023-09-07T12:19:11;42.20;78.20
16515;DHT22;8370;52.556;7.970;2023-09-07T12:21:36;41.00;77.00
16515;DHT22;8370;52.556;7.970;2023-09-07T12:24:02;39.40;80.70
16515;DHT22;8370;52.556;7.970;2023-09-07T12:26:27;38.10;82.80
16515;DHT22;8370;52.556;7.970;2023-09-07T12:28:52;36.80;85.00
16515;DHT22;8370;52.556;7.970;2023-09-07T12:31:18;35.60;86.80
16515;DHT22;8370;52.556;7.970;2023-09-07T12:33:44;34.70;88.10
16515;DHT22;8370;52.556;7.970;2023-09-07T12:36:09;33.90;90.00
16515;DHT22;8370;52.556;7.970;2023-09-07T12:38:36;33.40;91.90
16515;DHT22;8370;52.556;7.970;2023-09-07T12:41:02;33.00;92.00
16515;DHT22;8370;52.556;7.970;2023-09-07T12:43:27;32.60;91.60
16515;DHT22;8370;52.556;7.970;2023-09-07T12:45:53;32.20;92.30
16515;DHT22;8370;52.556;7.970;2023-09-07T12:48:19;31.80;92.90
16515;DHT22;8370;52.556;7.970;2023-09-07T12:50:44;31.40;93.00
16515;DHT22;8370;52.556;7.970;2023-09-07T12:53:10;31.20;94.50
16515;DHT22;8370;52.556;7.970;2023-09-07T12:55:35;31.10;94.90
16515;DHT22;8370;52.556;7.970;2023-09-07T12:58:01;30.80;95.40
16515;DHT22;8370;52.556;7.970;2023-09-07T13:00:27;30.70;96.30
16515;DHT22;8370;52.556;7.970;2023-09-07T13:02:54;30.60;95.40
16515;DHT22;8370;52.556;7.970;2023-09-07T13:05:19;30.50;95.90
16515;DHT22;8370;52.556;7.970;2023-09-07T13:07:45;30.50;95.60
16515;DHT22;8370;52.556;7.970;2023-09-07T13:10:11;30.60;95.90
16515;DHT22;8370;52.556;7.970;2023-09-07T13:12:36;30.50;96.00
16515;DHT22;8370;52.556;7.970;2023-09-07T13:15:03;30.40;95.10
16515;DHT22;8370;52.556;7.970;2023-09-07T13:17:28;30.40;96.50
16515;DHT22;8370;52.556;7.970;2023-09-07T13:19:54;30.30;97.00
16515;DHT22;8370;52.556;7.970;2023-09-07T13:22:19;30.10;97.10
16515;DHT22;8370;52.556;7.970;2023-09-07T13:24:45;30.00;96.70
16515;DHT22;8370;52.556;7.970;2023-09-07T13:27:10;30.00;97.70
16515;DHT22;8370;52.556;7.970;2023-09-07T13:29:36;30.10;98.00
16515;DHT22;8370;52.556;7.970;2023-09-07T13:32:01;30.10;98.10
16515;DHT22;8370;52.556;7.970;2023-09-07T13:34:27;30.00;97.90
16515;DHT22;8370;52.556;7.970;2023-09-07T13:36:53;30.00;99.00
16515;DHT22;8370;52.556;7.970;2023-09-07T13:39:19;30.00;97.50
16515;DHT22;8370;52.556;7.970;2023-09-07T13:41:44;29.90;97.40
16515;DHT22;8370;52.556;7.970;2023-09-07T13:44:10;29.80;98.70
16515;DHT22;8370;52.556;7.970;2023-09-07T13:46:35;29.80;98.30
16515;DHT22;8370;52.556;7.970;2023-09-07T13:49:01;29.80;99.10
16515;DHT22;8370;52.556;7.970;2023-09-07T13:51:26;29.80;98.60
16515;DHT22;8370;52.556;7.970;2023-09-07T13:53:51;29.80;98.30
16515;DHT22;8370;52.556;7.970;2023-09-07T13:56:20;29.70;98.30
16515;DHT22;8370;52.556;7.970;2023-09-07T13:58:45;29.70;99.00
16515;DHT22;8370;52.556;7.970;2023-09-07T14:01:11;29.60;98.80
16515;DHT22;8370;52.556;7.970;2023-09-07T14:03:36;29.50;98.50
16515;DHT22;8370;52.556;7.970;2023-09-07T14:06:02;29.60;99.50
16515;DHT22;8370;52.556;7.970;2023-09-07T14:08:28;29.60;99.50
16515;DHT22;8370;52.556;7.970;2023-09-07T14:10:55;29.60;98.70
16515;DHT22;8370;52.556;7.970;2023-09-07T14:13:21;29.70;98.30
16515;DHT22;8370;52.556;7.970;2023-09-07T14:15:46;29.70;98.80
16515;DHT22;8370;52.556;7.970;2023-09-07T14:18:12;29.70;99.20
16515;DHT22;8370;52.556;7.970;2023-09-07T14:20:37;29.70;99.20
16515;DHT22;8370;52.556;7.970;2023-09-07T14:23:03;29.70;99.80
16515;DHT22;8370;52.556;7.970;2023-09-07T14:25:29;29.60;99.90
16515;DHT22;8370;52.556;7.970;2023-09-07T14:27:55;29.70;99.80
16515;DHT22;8370;52.556;7.970;2023-09-07T14:30:20;29.70;99.70
16515;DHT22;8370;52.556;7.970;2023-09-07T14:32:46;29.60;99.50
16515;DHT22;8370;52.556;7.970;2023-09-07T14:35:12;29.60;99.90
16515;DHT22;8370;52.556;7.970;2023-09-07T14:37:37;29.50;99.80
16515;DHT22;8370;52.556;7.970;2023-09-07T14:40:03;29.60;99.90
16515;DHT22;8370;52.556;7.970;2023-09-07T14:42:29;29.50;99.70
16515;DHT22;8370;52.556;7.970;2023-09-07T14:44:54;29.50;99.90
16515;DHT22;8370;52.556;7.970;2023-09-07T14:47:22;29.50;99.80
16515;DHT22;8370;52.556;7.970;2023-09-07T14:49:53;29.50;99.90
16515;DHT22;8370;52.556;7.970;2023-09-07T14:52:19;29.60;99.90
16515;DHT22;8370;52.556;7.970;2023-09-07T14:54:44;29.60;99.90
16515;DHT22;8370;52.556;7.970;2023-09-07T14:57:10;29.60;99.80
16515;DHT22;8370;52.556;7.970;2023-09-07T14:59:35;29.60;99.20
16515;DHT22;8370;52.556;7.970;2023-09-07T15:02:07;29.50;99.90
16515;DHT22;8370;52.556;7.970;2023-09-07T15:04:33;29.60;99.90
16515;DHT22;8370;52.556;7.970;2023-09-07T15:06:58;29.50;99.90
16515;DHT22;8370;52.556;7.970;2023-09-07T15:09:24;29.50;99.90
16515;DHT22;8370;52.556;7.970;2023-09-07T15:11:50;29.50;99.90
16515;DHT22;8370;52.556;7.970;2023-09-07T15:14:16;29.50;99.30
16515;DHT22;8370;52.556;7.970;2023-09-07T15:16:42;29.40;99.30
16515;DHT22;8370;52.556;7.970;2023-09-07T15:19:07;29.50;99.30
16515;DHT22;8370;52.556;7.970;2023-09-07T15:21:33;29.40;99.70
16515;DHT22;8370;52.556;7.970;2023-09-07T15:23:58;29.40;99.40
16515;DHT22;8370;52.556;7.970;2023-09-07T15:26:24;29.40;99.40
16515;DHT22;8370;52.556;7.970;2023-09-07T15:28:49;29.40;99.90
16515;DHT22;8370;52.556;7.970;2023-09-07T15:31:15;29.30;99.90
16515;DHT22;8370;52.556;7.970;2023-09-07T15:33:40;29.30;99.40
16515;DHT22;8370;52.556;7.970;2023-09-07T15:36:06;29.40;99.30